Time;durP1;ratioP1;P1;durP2;ratioP2;P2;SDS_P1;SDS_P2;PMS_P1;PMS_P2;Temp;Humidity;BMP_temperature;BMP_pressure;BME280_temperature;BME280_humidity;BME280_pressure;Samples;Min_cycle;Max_cycle;Signal;HPM_P1;HPM_P2
2022/04/21 00:00:44;;;;;;;7.55;4.78;;;;;;;2.56;71.67;96859.53;5058450;28;20462;-63
2022/04/21 00:03:11;;;;;;;7.63;4.60;;;;;;;2.27;72.16;96851.84;5054905;28;20037;-63
2022/04/21 00:05:38;;;;;;;7.68;4.70;;;;;;;2.05;74.08;96853.97;5049015;28;20497;-63
2022/04/21 00:08:04;;;;;;;8.45;4.65;;;;;;;1.63;75.35;96844.44;5054180;28;20048;-64
2022/04/21 00:10:31;;;;;;;7.60;4.38;;;;;;;1.73;74.99;96840.50;5044733;28;20395;-63
2022/04/21 00:12:58;;;;;;;7.47;4.40;;;;;;;1.73;75.42;96832.50;5052770;28;20037;-63
2022/04/21 00:15:26;;;;;;;7.82;4.97;;;;;;;1.73;75.44;96835.19;5053986;28;20045;-63
2022/04/21 00:17:53;;;;;;;7.60;4.97;;;;;;;1.75;75.00;96833.94;5065499;28;20503;-63
2022/04/21 00:20:19;;;;;;;8.13;5.25;;;;;;;1.72;75.27;96831.69;5056445;28;20064;-63
2022/04/21 00:25:31;;;;;;;7.75;4.80;;;;;;;1.67;76.38;96820.81;5061166;28;20060;-63
2022/04/21 00:27:58;;;;;;;9.80;5.10;;;;;;;1.78;75.58;96819.34;5048373;28;20470;-63
2022/04/21 00:30:25;;;;;;;7.38;4.85;;;;;;;1.61;75.86;96825.13;5053525;28;20526;-63
2022/04/21 00:32:52;;;;;;;9.40;5.13;;;;;;;1.48;76.15;96822.47;5054828;28;20037;-63
2022/04/21 00:35:23;;;;;;;7.15;4.82;;;;;;;1.50;76.74;96823.91;5054008;28;20114;-63
2022/04/21 00:37:52;;;;;;;7.40;5.25;;;;;;;1.51;76.63;96819.41;5068792;28;20048;-63
2022/04/21 00:40:23;;;;;;;8.13;5.00;;;;;;;1.50;76.93;96809.75;5059232;28;20036;-63
2022/04/21 00:42:49;;;;;;;11.57;5.20;;;;;;;1.59;76.42;96811.19;5053667;28;20051;-63
2022/04/21 00:45:16;;;;;;;9.98;5.43;;;;;;;1.47;77.35;96805.66;5064241;28;20040;-63
2022/04/21 00:47:45;;;;;;;8.45;4.80;;;;;;;1.55;77.06;96809.97;5053962;28;20052;-63
2022/04/21 00:50:19;;;;;;;9.68;5.15;;;;;;;1.54;76.07;96816.31;5068259;28;20557;-63
2022/04/21 00:52:46;;;;;;;8.45;4.57;;;;;;;1.24;77.53;96812.25;5071666;28;20500;-63
2022/04/21 00:55:14;;;;;;;6.88;4.82;;;;;;;1.19;78.03;96813.88;5058277;28;20516;-63
2022/04/21 00:57:42;;;;;;;8.05;5.35;;;;;;;1.44;77.51;96811.41;5067639;28;20074;-63
2022/04/21 01:00:10;;;;;;;10.68;5.10;;;;;;;1.34;77.81;96809.16;5051410;28;20059;-63
2022/04/21 01:02:46;;;;;;;10.20;5.32;;;;;;;1.14;78.41;96801.19;5054706;28;20041;-63
2022/04/21 01:05:18;;;;;;;9.95;5.72;;;;;;;1.06;79.00;96796.03;5060526;28;20044;-64
2022/04/21 01:07:45;;;;;;;8.38;5.35;;;;;;;1.02;79.12;96800.94;5046934;28;20052;-63
2022/04/21 01:10:12;;;;;;;11.93;5.85;;;;;;;0.98;79.70;96802.38;5066624;28;20047;-63
2022/04/21 01:12:41;;;;;;;9.15;5.30;;;;;;;1.07;79.60;96806.47;5059789;28;20041;-63
2022/04/21 01:36:10;;;;;;;7.50;4.60;;;;;;;1.01;79.43;96801.97;5048964;28;20040;-63
2022/04/21 01:42:13;;;;;;;9.18;5.50;;;;;;;1.02;79.61;96792.94;5060834;28;20499;-63
2022/04/21 01:44:40;;;;;;;8.60;5.40;;;;;;;1.02;79.84;96793.78;5063997;28;20048;-63
2022/04/21 01:47:07;;;;;;;10.38;6.43;;;;;;;1.03;80.89;96791.91;5060777;28;20055;-64
2022/04/21 01:49:34;;;;;;;10.02;5.55;;;;;;;1.03;78.82;96789.25;5066451;28;20044;-64
2022/04/21 01:52:01;;;;;;;8.95;5.85;;;;;;;0.90;80.61;96788.25;5066646;28;20049;-63
2022/04/21 01:54:28;;;;;;;7.85;5.82;;;;;;;1.00;80.25;96787.03;5047341;28;20052;-63
2022/04/21 01:56:54;;;;;;;8.95;6.20;;;;;;;0.88;80.46;96787.63;5047466;28;20048;-63
2022/04/21 01:59:21;;;;;;;8.45;5.93;;;;;;;0.77;81.26;96789.03;5066785;28;20040;-63
2022/04/21 02:01:47;;;;;;;9.95;5.97;;;;;;;0.75;81.57;96784.94;5056551;28;20049;-63
2022/04/21 02:04:14;;;;;;;11.73;6.43;;;;;;;0.65;81.66;96788.00;5049201;28;20037;-63
2022/04/21 02:06:40;;;;;;;15.52;6.28;;;;;;;0.50;82.17;96791.69;5055103;28;20174;-63
2022/04/21 02:09:07;;;;;;;9.90;6.07;;;;;;;0.54;82.33;96785.94;5045292;28;20045;-63
2022/04/21 02:11:34;;;;;;;9.10;6.30;;;;;;;0.79;80.97;96786.19;5059256;28;20044;-63
2022/04/21 02:14:00;;;;;;;10.20;6.80;;;;;;;0.76;80.86;96782.09;5057614;28;20530;-63
2022/04/21 02:16:27;;;;;;;11.20;6.70;;;;;;;0.69;81.70;96783.06;5046852;28;20037;-63
2022/04/21 02:18:54;;;;;;;11.02;7.53;;;;;;;0.69;81.84;96772.41;5045914;28;20048;-63
2022/04/21 02:21:21;;;;;;;8.82;6.20;;;;;;;0.74;81.15;96772.66;5056060;28;20098;-63
2022/04/21 02:23:47;;;;;;;10.98;6.68;;;;;;;0.61;81.63;96766.28;5054473;28;20059;-63
2022/04/21 02:26:14;;;;;;;10.20;6.68;;;;;;;0.65;81.94;96772.00;5046699;28;20049;-63
2022/04/21 02:28:40;;;;;;;10.63;7.00;;;;;;;0.66;82.57;96768.31;5042308;28;20056;-63
2022/04/21 02:31:07;;;;;;;9.32;6.53;;;;;;;0.76;81.53;96765.25;5060872;28;20067;-63
2022/04/21 02:33:33;;;;;;;12.00;6.72;;;;;;;0.64;81.64;96759.72;5056625;28;20033;-63
2022/04/21 02:36:00;;;;;;;10.25;7.50;;;;;;;0.52;82.55;96762.19;5046119;28;20045;-63
2022/04/21 02:38:26;;;;;;;11.85;7.15;;;;;;;0.43;83.38;96758.03;5047347;28;20048;-63
2022/04/21 02:40:53;;;;;;;9.77;7.10;;;;;;;0.33;83.32;96758.44;5058136;28;20048;-63
2022/04/21 02:43:20;;;;;;;14.80;7.75;;;;;;;0.36;83.19;96758.84;5058003;28;20041;-63
2022/04/21 02:45:46;;;;;;;10.25;6.65;;;;;;;0.28;83.85;96758.22;5045339;28;20052;-63
2022/04/21 02:48:14;;;;;;;14.50;7.85;;;;;;;0.45;83.79;96762.16;5055475;28;20048;-63
2022/04/21 02:50:41;;;;;;;15.07;8.07;;;;;;;0.68;83.37;96754.81;5043419;28;20051;-63
2022/04/21 02:53:07;;;;;;;10.50;6.80;;;;;;;0.48;82.10;96752.94;5046701;28;20044;-64
2022/04/21 02:58:20;;;;;;;12.18;8.05;;;;;;;0.46;83.63;96753.16;5047996;28;20048;-63
2022/04/21 03:00:47;;;;;;;12.30;8.90;;;;;;;0.64;83.68;96749.91;5049192;28;20045;-63
2022/04/21 03:03:14;;;;;;;10.77;6.97;;;;;;;0.71;83.12;96743.75;5048042;28;20045;-63
2022/04/21 03:05:40;;;;;;;11.80;8.20;;;;;;;0.50;82.88;96742.91;5045913;28;20114;-64
2022/04/21 03:08:07;;;;;;;11.60;7.68;;;;;;;0.55;83.70;96743.09;5046177;28;20489;-63
2022/04/21 03:10:33;;;;;;;10.60;7.18;;;;;;;0.59;82.43;96740.88;5053682;28;20045;-64
2022/04/21 03:13:00;;;;;;;15.90;8.48;;;;;;;0.44;83.47;96733.06;5056933;28;20060;-63
2022/04/21 03:15:26;;;;;;;14.63;8.38;;;;;;;0.32;83.88;96735.47;5045098;28;20075;-64
2022/04/21 03:17:53;;;;;;;12.25;7.32;;;;;;;0.34;85.02;96728.94;5054977;28;20040;-63
2022/04/21 03:25:50;;;;;;;16.13;8.52;;;;;;;0.15;85.03;96727.91;5064150;28;20500;-63
2022/04/21 03:28:17;;;;;;;13.38;8.48;;;;;;;0.11;85.03;96732.78;5055159;28;20037;-63
2022/04/21 03:30:43;;;;;;;14.40;8.95;;;;;;;0.06;85.83;96726.41;5063328;28;20052;-63
2022/04/21 03:33:10;;;;;;;13.02;9.52;;;;;;;0.23;85.58;96730.34;5057550;28;20044;-63
2022/04/21 03:35:36;;;;;;;13.35;9.00;;;;;;;0.31;84.83;96721.38;5054917;28;20045;-63
2022/04/21 03:38:03;;;;;;;16.60;8.75;;;;;;;0.36;83.86;96731.41;5046550;28;20554;-63
2022/04/21 03:40:29;;;;;;;13.88;8.70;;;;;;;0.30;84.00;96727.72;5053026;28;20040;-63
2022/04/21 03:42:56;;;;;;;14.23;9.43;;;;;;;0.31;84.67;96724.03;5059849;28;20056;-63
2022/04/21 03:45:22;;;;;;;15.85;8.52;;;;;;;0.54;84.90;96735.31;5046328;28;20500;-63
2022/04/21 03:47:49;;;;;;;13.18;8.68;;;;;;;0.44;83.57;96730.41;5051588;28;20060;-63
2022/04/21 03:50:15;;;;;;;11.25;7.63;;;;;;;0.36;83.50;96729.56;5056851;28;20045;-63
2022/04/21 03:52:42;;;;;;;16.42;10.02;;;;;;;0.10;85.32;96732.97;5049110;28;20090;-63
2022/04/21 03:55:08;;;;;;;14.95;9.07;;;;;;;0.21;84.39;96732.41;5056011;28;20033;-63
2022/04/21 03:57:35;;;;;;;15.75;10.38;;;;;;;-0.05;85.40;96733.97;5049368;28;20053;-64
2022/04/21 04:00:02;;;;;;;16.42;10.27;;;;;;;-0.12;86.28;96735.78;5063095;28;20033;-63
2022/04/21 04:02:36;;;;;;;18.83;12.32;;;;;;;0.04;86.01;96739.13;5059082;28;20048;-63
2022/04/21 04:05:03;;;;;;;16.45;11.07;;;;;;;0.11;86.32;96735.44;5054959;28;20123;-63
2022/04/21 04:13:00;;;;;;;16.88;11.13;;;;;;;0.33;85.70;96732.63;5049754;28;20045;-63
2022/04/21 04:15:27;;;;;;;14.55;9.95;;;;;;;0.22;85.97;96735.91;5053036;28;20055;-63
2022/04/21 04:17:53;;;;;;;18.25;11.00;;;;;;;0.10;86.19;96741.78;5046360;28;20040;-63
2022/04/21 04:20:20;;;;;;;14.05;10.05;;;;;;;0.06;86.48;96740.56;5057507;28;20059;-63
2022/04/21 04:22:46;;;;;;;17.33;10.50;;;;;;;0.01;86.50;96737.69;5056484;28;20835;-64
2022/04/21 04:25:13;;;;;;;15.98;10.63;;;;;;;0.08;87.20;96741.16;5064305;28;20044;-63
2022/04/21 04:27:39;;;;;;;16.33;10.73;;;;;;;0.03;86.62;96743.59;5075086;28;20549;-63
2022/04/21 04:30:07;;;;;;;19.73;12.65;;;;;;;0.07;87.30;96742.19;5044879;28;20041;-64
2022/04/21 04:32:35;;;;;;;16.30;10.60;;;;;;;0.08;87.03;96738.50;5059131;28;20036;-64
2022/04/21 04:35:02;;;;;;;15.40;11.00;;;;;;;0.03;86.80;96738.28;5059360;28;20040;-63
2022/04/21 04:37:28;;;;;;;16.98;11.48;;;;;;;0.03;87.13;96738.28;5053097;28;20045;-63
2022/04/21 04:39:55;;;;;;;17.67;10.43;;;;;;;0.10;86.80;96744.47;5052165;28;20171;-63
2022/04/21 04:42:23;;;;;;;15.90;11.55;;;;;;;0.28;86.79;96742.22;5072927;28;20055;-64
2022/04/21 04:46:34;;;;;;;18.52;11.55;;;;;;;0.13;86.41;96729.94;5053651;28;20473;-63
2022/04/21 04:47:40;;;;;;;17.50;11.40;;;;;;;0.08;87.09;96735.84;5064669;28;20051;-63
2022/04/21 04:50:08;;;;;;;20.77;11.32;;;;;;;0.28;86.03;96731.59;5058230;28;20040;-64
2022/04/21 04:52:35;;;;;;;18.98;11.43;;;;;;;0.39;86.26;96739.00;5065298;28;20401;-63
2022/04/21 04:55:03;;;;;;;16.65;10.63;;;;;;;0.53;85.45;96737.16;5052542;28;20045;-64
2022/04/21 04:57:29;;;;;;;17.75;10.98;;;;;;;0.51;85.53;96739.19;5045629;28;20056;-63
2022/04/21 05:00:01;;;;;;;17.92;10.55;;;;;;;0.45;85.76;96730.19;5049415;28;20638;-63
2022/04/21 05:02:28;;;;;;;15.88;10.50;;;;;;;0.55;85.98;96731.66;5052585;28;20044;-63
2022/04/21 05:04:54;;;;;;;19.75;12.80;;;;;;;0.52;85.03;96738.19;5048985;28;20040;-63
2022/04/21 05:07:21;;;;;;;19.35;10.45;;;;;;;0.48;85.74;96734.31;5062671;28;20064;-64
2022/04/21 05:09:48;;;;;;;15.32;10.30;;;;;;;0.55;85.56;96734.31;5063095;28;20055;-64
2022/04/21 05:12:14;;;;;;;15.98;12.07;;;;;;;0.79;84.92;96727.56;5057072;28;20834;-64
2022/04/21 05:14:41;;;;;;;19.90;11.88;;;;;;;0.73;85.09;96731.84;5045040;28;20419;-63
2022/04/21 05:17:07;;;;;;;15.77;11.02;;;;;;;0.71;86.53;96731.25;5053288;28;20107;-64
2022/04/21 05:19:34;;;;;;;16.83;11.68;;;;;;;0.90;85.55;96731.44;5055356;28;20582;-64
2022/04/21 05:22:04;;;;;;;16.75;12.15;;;;;;;1.09;85.25;96728.97;5054475;28;20036;-63
2022/04/21 05:24:31;;;;;;;18.67;12.05;;;;;;;1.34;84.78;96723.81;5058723;28;20048;-64
2022/04/21 05:26:59;;;;;;;16.38;11.25;;;;;;;1.59;83.92;96724.97;5055940;28;20045;-64
2022/04/21 05:32:17;;;;;;;18.35;11.43;;;;;;;1.98;82.49;96725.03;5062929;28;20396;-64
2022/04/21 05:34:43;;;;;;;16.67;11.35;;;;;;;2.12;82.26;96726.59;5051385;28;20129;-64
2022/04/21 05:37:11;;;;;;;15.43;11.40;;;;;;;2.08;82.88;96725.38;5053736;28;20044;-64
2022/04/21 05:39:43;;;;;;;15.40;10.80;;;;;;;2.21;83.75;96725.31;5044811;28;20048;-64
2022/04/21 05:42:20;;;;;;;16.63;11.55;;;;;;;2.37;84.00;96723.16;5056025;28;20624;-63
2022/04/21 05:44:46;;;;;;;18.55;12.20;;;;;;;2.64;82.82;96717.63;5050302;28;20139;-64
2022/04/21 05:47:14;;;;;;;17.02;11.68;;;;;;;2.72;82.96;96724.56;5051109;28;20056;-63
2022/04/21 05:49:40;;;;;;;17.52;11.05;;;;;;;3.00;82.51;96723.31;5075605;28;20094;-63
2022/04/21 05:52:08;;;;;;;17.52;12.15;;;;;;;3.37;80.42;96719.88;5056548;28;20052;-64
2022/04/21 05:54:35;;;;;;;15.13;10.77;;;;;;;3.47;80.28;96714.00;5069520;28;20040;-63
2022/04/21 05:57:02;;;;;;;14.50;10.90;;;;;;;3.70;78.90;96717.88;5056982;28;20052;-63
2022/04/21 05:59:29;;;;;;;16.92;11.10;;;;;;;3.77;79.26;96716.75;5057370;28;20099;-64
2022/04/21 06:01:56;;;;;;;15.60;11.43;;;;;;;3.93;79.23;96719.03;5050064;28;20044;-63
2022/04/21 06:04:23;;;;;;;16.35;11.00;;;;;;;4.12;78.38;96723.31;5051344;28;20083;-63
2022/04/21 06:06:50;;;;;;;16.58;12.00;;;;;;;4.48;76.79;96715.41;5052851;28;20051;-63
2022/04/21 06:09:17;;;;;;;17.38;11.43;;;;;;;4.74;74.86;96716.06;5052195;28;20049;-64
2022/04/21 06:11:43;;;;;;;18.55;12.25;;;;;;;4.97;74.41;96714.44;5043197;28;20112;-63
2022/04/21 06:14:10;;;;;;;15.25;11.40;;;;;;;5.20;73.54;96712.84;5061189;28;20441;-63
2022/04/21 06:16:36;;;;;;;16.45;12.23;;;;;;;5.29;73.21;96711.44;5054231;28;20044;-63
2022/04/21 06:19:03;;;;;;;15.52;10.98;;;;;;;5.39;72.95;96713.53;5061112;28;20051;-64
2022/04/21 06:21:30;;;;;;;17.48;11.57;;;;;;;5.42;72.69;96707.69;5061429;28;20044;-64
2022/04/21 06:23:56;;;;;;;17.05;11.82;;;;;;;5.49;72.87;96704.88;5050745;28;20037;-64
2022/04/21 06:26:25;;;;;;;15.65;11.77;;;;;;;5.56;72.43;96713.63;5046382;28;20163;-64
2022/04/21 06:28:57;;;;;;;15.75;11.70;;;;;;;5.69;72.34;96709.03;5051950;28;20555;-63
2022/04/21 06:31:23;;;;;;;16.08;10.40;;;;;;;5.77;72.18;96711.38;5045915;28;20059;-63
2022/04/21 06:33:50;;;;;;;15.07;10.70;;;;;;;5.86;71.87;96715.31;5057800;28;20512;-63
2022/04/21 06:36:17;;;;;;;16.50;11.05;;;;;;;5.95;71.57;96712.25;5045790;28;20041;-63
2022/04/21 06:38:44;;;;;;;16.95;10.75;;;;;;;5.99;71.21;96714.25;5047288;28;20045;-63
2022/04/21 06:41:12;;;;;;;16.00;10.73;;;;;;;6.17;71.29;96714.31;5055054;28;20223;-63
2022/04/21 06:49:22;;;;;;;14.93;11.07;;;;;;;6.75;68.72;96712.38;5018587;28;20540;-56
2022/04/21 06:51:48;;;;;;;17.15;10.43;;;;;;;6.93;69.23;96715.09;5044261;28;20313;-55
2022/04/21 06:54:15;;;;;;;17.60;12.10;;;;;;;6.97;67.68;96713.53;5038387;28;20690;-55
2022/04/21 06:56:43;;;;;;;15.65;10.32;;;;;;;7.16;67.44;96714.91;5042716;28;20056;-56
2022/04/21 06:59:10;;;;;;;14.60;10.35;;;;;;;7.23;66.95;96713.94;5041444;28;20147;-57
2022/04/21 07:01:36;;;;;;;13.88;10.88;;;;;;;7.28;66.64;96711.31;5044847;28;20082;-55
2022/04/21 07:04:03;;;;;;;16.33;11.13;;;;;;;7.32;66.34;96706.25;5043352;28;20037;-55
2022/04/21 07:06:30;;;;;;;14.32;11.05;;;;;;;7.39;66.10;96707.72;5046259;28;20682;-57
2022/04/21 07:08:56;;;;;;;15.23;11.23;;;;;;;7.39;66.80;96709.59;5045912;28;20047;-56
2022/04/21 07:11:23;;;;;;;14.20;10.07;;;;;;;7.53;64.40;96715.44;5060102;28;20600;-57
2022/04/21 07:13:49;;;;;;;16.75;10.77;;;;;;;7.55;66.25;96714.13;5044249;28;20041;-59
2022/04/21 07:16:16;;;;;;;14.82;11.13;;;;;;;7.62;65.64;96711.25;5042509;28;20040;-54
2022/04/21 07:18:42;;;;;;;13.82;10.48;;;;;;;7.67;65.70;96711.31;5049206;28;20064;-60
2022/04/21 07:21:09;;;;;;;16.83;10.45;;;;;;;7.73;65.03;96712.19;5054413;28;20052;-56
2022/04/21 07:23:36;;;;;;;14.45;10.32;;;;;;;7.87;63.90;96706.44;5057184;28;20036;-56
2022/04/21 07:26:03;;;;;;;19.90;10.25;;;;;;;7.76;63.67;96705.47;5058663;28;20043;-56
2022/04/21 07:28:29;;;;;;;14.75;10.35;;;;;;;8.00;64.37;96706.03;5046043;28;20041;-56
2022/04/21 07:30:56;;;;;;;13.98;9.88;;;;;;;8.05;62.03;96695.34;5054587;28;20040;-71
2022/04/21 07:33:22;;;;;;;17.95;9.45;;;;;;;8.15;63.05;96701.91;5054298;28;20052;-68
2022/04/21 07:35:49;;;;;;;13.50;9.93;;;;;;;8.18;62.68;96704.91;5052247;28;20048;-72
2022/04/21 07:38:16;;;;;;;15.05;10.98;;;;;;;8.24;62.72;96710.34;5056188;28;20040;-65
2022/04/21 07:40:43;;;;;;;17.23;10.13;;;;;;;8.29;61.57;96696.94;5049306;28;20106;-68
2022/04/21 07:43:10;;;;;;;14.52;10.57;;;;;;;8.21;60.56;96700.88;5042084;28;20413;-68
2022/04/21 07:45:44;;;;;;;17.33;10.10;;;;;;;8.32;60.34;96693.72;5050628;28;20120;-71
2022/04/21 07:48:11;;;;;;;14.70;10.00;;;;;;;8.30;60.51;96701.25;5048458;28;20033;-65
2022/04/21 07:50:38;;;;;;;13.88;9.70;;;;;;;8.29;60.98;96699.63;5046623;28;20048;-72
2022/04/21 07:53:21;;;;;;;16.73;10.18;;;;;;;8.35;61.79;96697.78;5058522;28;20048;-69
2022/04/21 07:55:52;;;;;;;17.50;10.63;;;;;;;8.44;61.98;96688.19;5054507;28;20041;-66
2022/04/21 07:58:19;;;;;;;16.83;9.82;;;;;;;8.51;62.17;96698.78;5044384;28;20099;-68
2022/04/21 08:00:46;;;;;;;15.05;10.43;;;;;;;8.58;61.50;96689.41;5043895;28;20049;-69
2022/04/21 08:03:16;;;;;;;15.77;10.27;;;;;;;8.67;62.19;96687.06;5068357;28;20055;-67
2022/04/21 08:05:42;;;;;;;14.57;11.38;;;;;;;8.84;61.67;96691.50;5059454;28;20496;-67
2022/04/21 08:08:11;;;;;;;18.63;11.63;;;;;;;8.91;61.49;96689.41;5043308;28;20586;-66
2022/04/21 08:10:38;;;;;;;15.05;11.23;;;;;;;8.96;61.24;96694.84;5057852;28;20045;-64
2022/04/21 08:13:05;;;;;;;14.25;10.93;;;;;;;8.90;60.40;96695.06;5042034;28;20040;-64
2022/04/21 08:15:33;;;;;;;13.68;9.65;;;;;;;9.09;57.53;96696.31;5051889;28;20041;-65
2022/04/21 08:18:02;;;;;;;16.08;11.20;;;;;;;9.15;57.21;96699.88;5050017;28;20076;-76
2022/04/21 08:20:31;;;;;;;15.27;9.95;;;;;;;9.04;57.14;96695.47;5045683;28;20094;-68
2022/04/21 08:22:58;;;;;;;16.38;10.60;;;;;;;9.20;57.52;96691.78;5041069;28;20041;-66
2022/04/21 08:34:17;;;;;;;15.50;9.20;;;;;;;9.71;56.22;96697.75;5049225;28;20041;-65
2022/04/21 08:36:51;;;;;;;13.57;8.98;;;;;;;9.71;55.58;96695.06;5056034;28;20130;-71
2022/04/21 08:39:19;;;;;;;13.98;9.77;;;;;;;9.78;56.61;96694.81;5054374;28;20041;-71
2022/04/21 08:41:52;;;;;;;12.15;9.00;;;;;;;9.91;54.93;96693.53;5054817;28;20045;-72
2022/04/21 08:44:19;;;;;;;12.60;8.90;;;;;;;10.06;55.04;96692.78;5045763;28;20078;-65
2022/04/21 08:46:49;;;;;;;11.35;9.05;;;;;;;10.11;54.80;96690.91;5048766;28;20041;-67
2022/04/21 08:49:21;;;;;;;14.30;8.85;;;;;;;10.17;53.96;96688.19;5057115;28;20048;-68
2022/04/21 08:51:48;;;;;;;13.20;9.18;;;;;;;10.30;54.19;96687.69;5058116;28;20567;-66
2022/04/21 08:54:15;;;;;;;14.15;9.85;;;;;;;10.24;53.70;96694.16;5054995;28;20143;-64
2022/04/21 08:56:42;;;;;;;11.73;8.93;;;;;;;10.12;53.72;96697.09;5049824;28;20045;-64
2022/04/21 08:59:08;;;;;;;13.15;9.13;;;;;;;10.30;53.87;96689.56;5044280;28;20047;-66
2022/04/21 09:01:35;;;;;;;13.32;9.52;;;;;;;10.51;53.91;96691.28;5050870;28;20048;-68
2022/04/21 09:04:02;;;;;;;13.75;9.35;;;;;;;10.52;53.95;96682.09;5050998;28;20048;-64
2022/04/21 09:06:29;;;;;;;15.82;10.63;;;;;;;10.61;54.26;96682.34;5052359;28;20447;-64
2022/04/21 09:09:16;;;;;;;12.80;10.07;;;;;;;10.59;53.48;96678.28;5049620;28;20440;-64
2022/04/21 09:11:44;;;;;;;14.35;10.27;;;;;;;10.60;53.86;96674.50;5049503;28;20052;-64
2022/04/21 09:14:16;;;;;;;13.10;9.73;;;;;;;10.71;52.99;96678.03;5050674;28;20056;-63
2022/04/21 09:16:43;;;;;;;14.82;10.15;;;;;;;10.68;52.21;96671.25;5043979;28;20155;-66
2022/04/21 09:19:10;;;;;;;13.52;9.60;;;;;;;10.76;52.46;96667.22;5045213;28;20049;-68
2022/04/21 09:21:39;;;;;;;12.43;9.65;;;;;;;10.87;51.67;96674.25;5050248;28;20049;-64
2022/04/21 09:24:25;;;;;;;15.60;10.77;;;;;;;10.88;52.03;96666.94;5052460;28;20048;-66
2022/04/21 09:26:53;;;;;;;12.70;8.77;;;;;;;10.98;51.70;96682.38;5054819;28;20141;-65
2022/04/21 09:29:25;;;;;;;11.27;8.68;;;;;;;11.11;52.16;96678.28;5050473;28;20094;-65
2022/04/21 09:31:55;;;;;;;16.45;9.80;;;;;;;11.28;51.06;96672.59;5056637;28;20058;-65
2022/04/21 09:34:22;;;;;;;17.63;10.13;;;;;;;11.19;50.96;96675.03;5051071;28;20275;-63
2022/04/21 09:36:49;;;;;;;12.40;8.68;;;;;;;11.24;50.58;96663.38;5054423;28;20044;-64
2022/04/21 09:39:15;;;;;;;13.18;10.05;;;;;;;11.24;51.35;96669.59;5051520;28;20049;-65
2022/04/21 09:41:51;;;;;;;11.43;9.10;;;;;;;11.40;51.15;96666.88;5047793;28;20986;-65
2022/04/21 09:47:10;;;;;;;15.25;9.60;;;;;;;11.31;50.68;96655.75;5060748;28;20044;-66
2022/04/21 09:49:39;;;;;;;13.65;9.73;;;;;;;11.29;50.64;96647.94;5072121;28;20055;-66
2022/04/21 09:52:06;;;;;;;13.13;9.13;;;;;;;11.12;50.57;96648.22;5049677;28;20095;-66
2022/04/21 09:54:34;;;;;;;11.85;8.45;;;;;;;11.22;50.56;96647.41;5046214;28;20040;-66
2022/04/21 09:57:02;;;;;;;10.45;8.00;;;;;;;11.45;49.05;96653.28;5046019;28;20082;-66
2022/04/21 09:59:34;;;;;;;10.77;7.90;;;;;;;11.44;49.60;96646.25;5049224;28;20049;-65
2022/04/21 10:02:03;;;;;;;13.10;8.82;;;;;;;11.62;49.77;96633.19;5052707;28;20041;-65
2022/04/21 10:04:31;;;;;;;14.65;8.55;;;;;;;11.66;50.02;96632.38;5064369;28;20044;-65
2022/04/21 10:06:58;;;;;;;13.13;8.65;;;;;;;11.78;49.87;96632.03;5047921;28;20606;-65
2022/04/21 10:09:25;;;;;;;11.27;8.77;;;;;;;11.88;49.87;96630.38;5051435;28;20045;-65
2022/04/21 10:11:53;;;;;;;11.68;8.32;;;;;;;11.93;49.57;96627.63;5056746;28;20036;-65
2022/04/21 10:14:20;;;;;;;12.13;7.80;;;;;;;11.86;49.57;96614.38;5047569;28;20055;-65
2022/04/21 10:16:47;;;;;;;9.50;6.93;;;;;;;12.15;49.19;96623.72;5044836;28;20064;-65
2022/04/21 10:19:19;;;;;;;11.25;7.68;;;;;;;12.38;48.87;96607.88;5053969;28;20112;-65
2022/04/21 10:21:52;;;;;;;10.52;7.63;;;;;;;12.51;48.27;96617.25;5059831;28;20048;-66
2022/04/21 10:24:24;;;;;;;9.48;7.63;;;;;;;12.22;48.84;96611.50;5061139;28;20045;-65
2022/04/21 10:26:51;;;;;;;10.55;7.45;;;;;;;12.20;49.32;96604.72;5050302;28;20637;-70
2022/04/21 10:29:23;;;;;;;9.35;6.90;;;;;;;12.28;48.92;96598.69;5052249;28;20044;-69
2022/04/21 10:31:51;;;;;;;9.70;6.13;;;;;;;12.56;47.50;96601.75;5054783;28;20060;-69
2022/04/21 10:34:40;;;;;;;9.05;6.32;;;;;;;12.43;47.29;96600.50;5043266;28;20036;-69
2022/04/21 10:37:19;;;;;;;7.03;5.43;;;;;;;12.55;47.70;96596.59;5053911;28;20056;-69
2022/04/21 10:40:10;;;;;;;7.32;5.38;;;;;;;12.56;46.80;96593.59;5056243;28;20045;-70
2022/04/21 10:42:52;;;;;;;8.05;5.82;;;;;;;13.00;46.44;96580.16;5051094;28;20051;-67
2022/04/21 10:45:24;;;;;;;;;;;;;;;13.40;45.59;96580.81;5054644;28;20415;-69
2022/04/21 10:48:13;;;;;;;8.27;6.30;;;;;;;13.66;46.00;96582.44;5049079;28;19924;-69
2022/04/21 10:50:41;;;;;;;11.02;7.68;;;;;;;13.14;47.30;96578.41;5060417;28;20040;-70
2022/04/21 10:58:42;;;;;;;10.15;7.90;;;;;;;13.84;45.97;96563.72;5048196;28;20036;-69
2022/04/21 11:01:13;;;;;;;8.80;6.95;;;;;;;13.69;46.37;96559.28;5042000;28;20049;-71
2022/04/21 11:03:41;;;;;;;9.53;6.37;;;;;;;13.89;45.95;96563.63;5058464;28;20045;-70
2022/04/21 11:06:13;;;;;;;10.50;6.72;;;;;;;14.09;45.47;96562.56;5061022;28;20037;-69
2022/04/21 11:08:40;;;;;;;8.38;6.32;;;;;;;14.52;43.72;96556.16;5051117;28;20049;-66
2022/04/21 11:11:07;;;;;;;7.65;5.82;;;;;;;14.63;44.55;96562.25;5057825;28;20045;-64
2022/04/21 11:13:50;;;;;;;10.80;5.10;;;;;;;14.53;43.37;96554.25;5050774;28;20045;-63
2022/04/21 11:16:56;;;;;;;6.18;4.28;;;;;;;14.50;42.40;96555.66;5059555;28;20063;-64
2022/04/21 11:19:31;;;;;;;7.47;4.20;;;;;;;14.79;42.42;96557.38;5047075;28;20324;-61
2022/04/21 11:22:05;;;;;;;6.72;4.38;;;;;;;14.96;42.01;96558.69;5054427;28;20060;-61
2022/04/21 11:24:58;;;;;;;5.95;3.83;;;;;;;15.63;41.32;96551.16;5050411;28;20508;-64
2022/04/21 11:27:26;;;;;;;6.65;4.10;;;;;;;15.97;39.96;96543.63;5053677;28;20255;-66
2022/04/21 11:29:58;;;;;;;8.43;4.32;;;;;;;16.02;40.33;96537.22;5044932;28;20045;-69
2022/04/21 11:32:28;;;;;;;6.80;4.25;;;;;;;15.24;41.49;96534.19;5051885;28;20449;-72
2022/04/21 11:35:04;;;;;;;6.30;3.90;;;;;;;15.02;42.40;96529.44;5049897;28;20052;-69
2022/04/21 11:37:57;;;;;;;8.60;4.28;;;;;;;15.05;41.99;96532.38;5043605;28;20431;-70
2022/04/21 11:40:32;;;;;;;5.63;3.95;;;;;;;14.82;42.28;96521.34;5050941;28;20056;-65
2022/04/21 11:43:14;;;;;;;6.20;4.13;;;;;;;14.40;43.11;96521.22;5038900;28;20068;-63
2022/04/21 11:45:44;;;;;;;6.50;4.10;;;;;;;14.87;41.55;96520.44;5053025;28;20102;-64
2022/04/21 11:48:13;;;;;;;6.75;3.67;;;;;;;14.70;42.09;96524.53;5050776;28;20040;-72
2022/04/21 11:50:44;;;;;;;5.97;4.18;;;;;;;15.28;41.73;96521.56;5052528;28;20043;-65
2022/04/21 11:53:18;;;;;;;6.80;3.83;;;;;;;15.23;41.92;96526.31;5045113;28;20499;-70
2022/04/21 11:55:46;;;;;;;5.43;3.72;;;;;;;14.88;42.21;96522.06;5047751;28;20500;-71
2022/04/21 11:58:26;;;;;;;5.90;3.60;;;;;;;15.00;41.61;96512.59;5042755;28;20045;-63
2022/04/21 12:06:45;;;;;;;4.70;2.85;;;;;;;16.28;39.66;96510.13;5045340;28;20051;-69
2022/04/21 12:09:22;;;;;;;8.93;3.55;;;;;;;15.29;40.10;96504.09;5044657;28;20086;-69
2022/04/21 12:11:51;;;;;;;;;;;;;;;15.84;39.75;96504.28;5054844;28;20147;-67
2022/04/21 12:14:18;;;;;;;3.63;2.30;;;;;;;16.50;38.43;96498.41;5043627;28;19931;-63
2022/04/21 12:16:59;;;;;;;4.05;2.75;;;;;;;17.06;37.02;96499.97;5041607;28;20052;-66
2022/04/21 12:19:28;;;;;;;;;;;;;;;17.05;36.93;96486.59;5048287;28;20045;-67
2022/04/21 12:22:06;;;;;;;3.90;2.30;;;;;;;17.03;37.67;96490.44;5048999;28;19925;-68
2022/04/21 12:24:39;;;;;;;3.95;2.40;;;;;;;17.03;37.02;96493.16;5047309;28;20048;-64
2022/04/21 12:27:19;;;;;;;3.50;2.25;;;;;;;16.62;37.30;96491.56;5053009;28;20427;-68
2022/04/21 12:29:49;;;;;;;4.70;2.17;;;;;;;16.90;36.71;96477.69;5047601;28;20497;-70
2022/04/21 12:32:25;;;;;;;3.47;1.90;;;;;;;17.19;37.21;96476.38;5056414;28;20028;-67
2022/04/21 12:34:55;;;;;;;3.75;2.30;;;;;;;17.28;36.97;96482.66;5061144;28;20054;-72
2022/04/21 12:37:35;;;;;;;3.67;1.90;;;;;;;17.95;35.60;96479.06;5054318;28;20048;-65
2022/04/21 12:40:05;;;;;;;4.47;2.20;;;;;;;18.00;34.97;96476.16;5049696;28;20292;-65
2022/04/21 12:42:45;;;;;;;3.45;1.80;;;;;;;17.73;35.81;96475.31;5044299;28;20041;-65
2022/04/21 12:45:12;;;;;;;3.50;2.10;;;;;;;16.84;36.86;96484.44;5048557;28;20504;-65
2022/04/21 12:47:46;;;;;;;4.30;2.30;;;;;;;16.48;37.43;96478.75;5049432;28;20044;-66
2022/04/21 12:50:21;;;;;;;3.80;2.10;;;;;;;16.97;36.82;96474.50;5049680;28;20075;-66
2022/04/21 12:52:52;;;;;;;5.32;2.13;;;;;;;17.24;37.05;96475.41;5048574;28;20497;-66